createdAt,value
2022-08-18T00:00:11.016Z,100484.00
2022-08-18T00:02:54.456Z,100475.00
2022-08-18T00:05:31.995Z,100478.00
2022-08-18T00:08:02.457Z,100477.00
2022-08-18T00:10:33.074Z,100476.00
2022-08-18T00:13:06.101Z,100468.00
2022-08-18T00:15:48.746Z,100476.00
2022-08-18T00:18:19.776Z,100472.00
2022-08-18T00:20:50.218Z,100473.00
2022-08-18T00:23:20.693Z,100476.00
2022-08-18T00:25:51.124Z,100476.00
2022-08-18T00:28:24.125Z,100473.00
2022-08-18T00:30:54.519Z,100476.00
2022-08-18T00:33:25.001Z,100474.00
2022-08-18T00:35:55.537Z,100469.00
2022-08-18T00:38:26.147Z,100468.00
2022-08-18T00:40:58.903Z,100468.00
2022-08-18T00:43:41.958Z,100473.00
2022-08-18T00:46:15.796Z,100469.00
2022-08-18T00:48:48.611Z,100466.00
2022-08-18T00:51:22.708Z,100464.00
2022-08-18T00:54:01.579Z,100465.00
2022-08-18T00:56:37.424Z,100468.00
2022-08-18T00:59:15.976Z,100464.00
2022-08-18T01:01:48.204Z,100466.00
2022-08-18T01:04:23.057Z,100466.00
2022-08-18T01:07:01.349Z,100455.00
2022-08-18T01:09:31.976Z,100451.00
2022-08-18T01:12:02.206Z,100453.00
2022-08-18T01:14:55.313Z,100445.00
2022-08-18T01:17:39.046Z,100449.00
2022-08-18T01:20:23.030Z,100441.00
2022-08-18T01:23:07.433Z,100446.00
2022-08-18T01:25:50.062Z,100449.00
2022-08-18T01:28:22.654Z,100450.00
2022-08-18T01:30:58.520Z,100456.00
2022-08-18T01:33:32.698Z,100456.00
2022-08-18T01:36:05.624Z,100444.00
2022-08-18T01:38:39.462Z,100448.00
2022-08-18T01:41:23.890Z,100447.00
2022-08-18T01:44:00.377Z,100450.00
2022-08-18T01:46:33.989Z,100445.00
2022-08-18T01:49:05.959Z,100443.00
2022-08-18T01:51:40.036Z,100445.00
2022-08-18T01:54:16.938Z,100441.00
2022-08-18T01:56:48.536Z,100432.00
2022-08-18T01:59:19.212Z,100430.00
2022-08-18T02:01:53.354Z,100432.00
2022-08-18T02:04:37.120Z,100437.00
2022-08-18T02:07:12.832Z,100428.00
2022-08-18T02:09:47.138Z,100427.00
2022-08-18T02:12:21.496Z,100426.00
2022-08-18T02:14:53.245Z,100426.00
2022-08-18T02:17:24.029Z,100426.00
2022-08-18T02:19:54.354Z,100431.00
2022-08-18T02:22:25.131Z,100423.00
2022-08-18T02:25:00.524Z,100418.00
2022-08-18T02:27:31.653Z,100416.00
2022-08-18T02:30:04.623Z,100420.00
2022-08-18T02:32:35.896Z,100408.00
2022-08-18T02:35:08.338Z,100414.00
2022-08-18T02:37:42.743Z,100412.00
2022-08-18T02:40:16.469Z,100416.00
2022-08-18T02:42:47.707Z,100408.00
2022-08-18T02:45:18.129Z,100406.00
2022-08-18T02:47:53.973Z,100406.00
2022-08-18T02:50:25.157Z,100406.00
2022-08-18T02:52:55.392Z,100406.00
2022-08-18T02:55:29.514Z,100403.00
2022-08-18T02:58:02.009Z,100405.00
2022-08-18T03:00:32.430Z,100407.00
2022-08-18T03:03:03.103Z,100411.00
2022-08-18T03:05:33.691Z,100411.00
2022-08-18T03:08:04.102Z,100408.00
2022-08-18T03:10:37.534Z,100404.00
2022-08-18T03:13:07.995Z,100400.00
2022-08-18T03:15:38.491Z,100406.00
2022-08-18T03:18:09.133Z,100401.00
2022-08-18T03:20:39.620Z,100402.00
2022-08-18T03:23:11.669Z,100417.00
2022-08-18T03:25:51.646Z,100407.00
2022-08-18T03:28:23.118Z,100406.00
2022-08-18T03:30:53.333Z,100414.00
2022-08-18T03:33:23.630Z,100415.00
2022-08-18T03:35:54.090Z,100419.00
2022-08-18T03:38:24.528Z,100416.00
2022-08-18T03:40:58.246Z,100419.00
2022-08-18T03:43:50.976Z,100409.00
2022-08-18T03:46:22.500Z,100417.00
2022-08-18T03:48:54.429Z,100423.00
2022-08-18T03:51:29.068Z,100426.00
2022-08-18T03:54:03.232Z,100418.00
2022-08-18T03:56:40.731Z,100423.00
2022-08-18T03:59:17.159Z,100417.00
2022-08-18T04:01:49.154Z,100415.00
2022-08-18T04:04:22.852Z,100420.00
2022-08-18T04:06:58.685Z,100419.00
2022-08-18T04:09:31.934Z,100431.00
2022-08-18T04:12:16.702Z,100435.00
2022-08-18T04:14:50.221Z,100430.00
2022-08-18T04:17:23.703Z,100429.00
2022-08-18T04:19:54.412Z,100428.00
2022-08-18T04:22:25.121Z,100434.00
2022-08-18T04:24:58.129Z,100438.00
2022-08-18T04:27:32.423Z,100444.00
2022-08-18T04:30:03.933Z,100446.00
2022-08-18T04:32:34.691Z,100443.00
2022-08-18T04:35:04.799Z,100441.00
2022-08-18T04:37:39.657Z,100435.00
2022-08-18T04:40:14.808Z,100443.00
2022-08-18T04:42:48.616Z,100447.00
2022-08-18T04:45:19.060Z,100448.00
2022-08-18T04:47:49.278Z,100452.00
2022-08-18T04:50:19.757Z,100446.00
2022-08-18T04:53:02.621Z,100443.00
2022-08-18T04:55:33.045Z,100447.00
2022-08-18T04:58:05.892Z,100444.00
2022-08-18T05:00:36.197Z,100449.00
2022-08-18T05:03:06.515Z,100448.00
2022-08-18T05:05:36.791Z,100454.00
2022-08-18T05:08:08.293Z,100454.00
2022-08-18T05:10:40.561Z,100462.00
2022-08-18T05:13:15.233Z,100467.00
2022-08-18T05:16:08.979Z,100461.00
2022-08-18T05:18:40.624Z,100465.00
2022-08-18T05:21:15.701Z,100469.00
2022-08-18T05:23:48.440Z,100471.00
2022-08-18T05:26:20.024Z,100471.00
2022-08-18T05:28:53.768Z,100470.00
2022-08-18T05:31:35.040Z,100472.00
2022-08-18T05:34:05.614Z,100469.00
2022-08-18T05:37:03.505Z,100471.00
2022-08-18T05:39:41.530Z,100461.00
2022-08-18T05:42:18.538Z,100468.00
2022-08-18T05:44:54.908Z,100466.00
2022-08-18T05:47:29.046Z,100466.00
2022-08-18T05:50:11.826Z,100467.00
2022-08-18T05:52:47.755Z,100468.00
2022-08-18T05:55:37.886Z,100463.00
2022-08-18T05:58:16.667Z,100463.00
2022-08-18T06:00:59.775Z,100469.00
2022-08-18T06:03:46.431Z,100464.00
2022-08-18T06:06:22.068Z,100470.00
2022-08-18T06:09:00.383Z,100471.00
2022-08-18T06:11:30.818Z,100472.00
2022-08-18T06:14:01.679Z,100467.00
2022-08-18T06:16:49.736Z,100466.00
2022-08-18T06:19:44.600Z,100466.00
2022-08-18T06:22:30.616Z,100465.00
2022-08-18T06:25:17.879Z,100469.00
2022-08-18T06:27:58.845Z,100465.00
2022-08-18T06:30:45.717Z,100461.00
2022-08-18T06:33:38.016Z,100462.00
2022-08-18T06:36:18.695Z,100463.00
2022-08-18T06:39:02.094Z,100476.00
2022-08-18T06:41:43.278Z,100477.00
2022-08-18T06:44:18.043Z,100476.00
2022-08-18T06:46:50.281Z,100479.00
2022-08-18T06:49:46.753Z,100487.00
2022-08-18T06:52:30.414Z,100485.00
2022-08-18T06:55:03.402Z,100485.00
2022-08-18T06:57:38.158Z,100489.00
2022-08-18T07:00:28.173Z,100489.00
2022-08-18T07:03:09.677Z,100494.00
2022-08-18T07:06:03.872Z,100498.00
2022-08-18T07:08:36.393Z,100496.00
2022-08-18T07:11:17.741Z,100503.00
2022-08-18T07:14:03.589Z,100508.00
2022-08-18T07:16:57.827Z,100516.00
2022-08-18T07:19:33.416Z,100512.00
2022-08-18T07:22:12.870Z,100505.00
2022-08-18T07:24:46.172Z,100506.00
2022-08-18T07:27:19.495Z,100493.00
2022-08-18T07:30:06.143Z,100500.00
2022-08-18T07:32:48.977Z,100504.00
2022-08-18T07:35:27.670Z,100503.00
2022-08-18T07:38:38.547Z,100503.00
2022-08-18T07:41:02.713Z,100498.00
2022-08-18T07:43:44.200Z,100504.00
2022-08-18T07:46:20.576Z,100500.00
2022-08-18T07:48:51.109Z,100510.00
2022-08-18T07:51:33.305Z,100501.00
2022-08-18T07:54:45.413Z,100507.00
2022-08-18T07:57:19.891Z,100507.00
2022-08-18T07:59:59.417Z,100505.00
2022-08-18T08:02:50.529Z,100510.00
2022-08-18T08:05:44.958Z,100515.00
2022-08-18T08:08:25.317Z,100519.00
2022-08-18T08:11:21.168Z,100514.00
2022-08-18T08:14:11.469Z,100511.00
2022-08-18T08:16:50.454Z,100517.00
2022-08-18T08:20:00.865Z,100513.00
2022-08-18T08:22:40.605Z,100517.00
2022-08-18T08:25:45.284Z,100514.00
2022-08-18T08:28:27.562Z,100519.00
2022-08-18T08:31:35.942Z,100515.00
2022-08-18T08:34:15.026Z,100522.00
2022-08-18T08:36:50.277Z,100518.00
2022-08-18T08:39:28.535Z,100526.00
2022-08-18T08:42:30.896Z,100523.00
2022-08-18T08:45:01.323Z,100535.00
2022-08-18T08:47:36.667Z,100523.00
2022-08-18T08:50:13.682Z,100529.00
2022-08-18T08:52:49.805Z,100521.00
2022-08-18T08:55:27.127Z,100532.00
2022-08-18T08:58:06.366Z,100522.00
2022-08-18T09:00:40.396Z,100524.00
2022-08-18T09:03:29.929Z,100516.00
2022-08-18T09:06:17.206Z,100514.00
2022-08-18T09:09:18.952Z,100507.00
2022-08-18T09:12:12.390Z,100508.00
2022-08-18T09:15:06.253Z,100503.00
2022-08-18T09:18:15.790Z,100501.00
2022-08-18T09:21:01.240Z,100499.00
2022-08-18T09:23:35.392Z,100490.00
2022-08-18T09:26:32.332Z,100482.00
2022-08-18T09:29:23.544Z,100489.00
2022-08-18T09:32:57.025Z,100480.00
2022-08-18T09:35:57.909Z,100477.00
2022-08-18T09:38:45.689Z,100469.00
2022-08-18T09:41:37.797Z,100477.00
2022-08-18T09:44:21.458Z,100473.00
2022-08-18T09:47:03.457Z,100471.00
2022-08-18T09:49:53.764Z,100474.00
2022-08-18T09:53:02.315Z,100458.00
2022-08-18T09:56:04.816Z,100453.00
2022-08-18T09:58:58.857Z,100455.00
2022-08-18T10:01:40.246Z,100450.00
2022-08-18T10:04:37.122Z,100455.00
2022-08-18T10:07:43.606Z,100452.00
2022-08-18T10:11:00.447Z,100449.00
2022-08-18T10:13:27.311Z,100437.00
2022-08-18T10:16:13.811Z,100441.00
2022-08-18T10:19:00.962Z,100423.00
2022-08-18T10:21:53.989Z,100422.00
2022-08-18T10:24:36.334Z,100427.00
2022-08-18T10:27:29.343Z,100427.00
2022-08-18T10:30:01.128Z,100432.00
2022-08-18T10:32:54.711Z,100428.00
2022-08-18T10:36:11.037Z,100423.00
2022-08-18T10:38:49.668Z,100423.00
2022-08-18T10:41:30.985Z,100422.00
2022-08-18T10:44:27.428Z,100426.00
2022-08-18T10:46:56.269Z,100427.00
2022-08-18T10:49:32.114Z,100433.00
2022-08-18T10:52:58.930Z,100422.00
2022-08-18T10:55:59.042Z,100417.00
2022-08-18T10:58:48.542Z,100407.00
2022-08-18T11:01:49.650Z,100407.00
2022-08-18T11:04:34.074Z,100410.00
2022-08-18T11:07:14.727Z,100406.00
2022-08-18T11:10:04.693Z,100406.00
2022-08-18T11:13:09.675Z,100413.00
2022-08-18T11:15:46.128Z,100411.00
2022-08-18T11:18:42.650Z,100408.00
2022-08-18T11:21:34.381Z,100399.00
2022-08-18T11:24:18.371Z,100391.00
2022-08-18T11:26:53.522Z,100394.00
2022-08-18T11:29:36.943Z,100397.00
2022-08-18T11:32:14.422Z,100391.00
2022-08-18T11:34:56.286Z,100392.00
2022-08-18T11:37:51.487Z,100387.00
2022-08-18T11:43:41.596Z,100386.00
2022-08-18T11:46:29.470Z,100384.00
2022-08-18T11:49:04.454Z,100386.00
2022-08-18T11:51:39.292Z,100386.00
2022-08-18T11:54:25.498Z,100384.00
2022-08-18T11:56:56.063Z,100378.00
2022-08-18T11:59:54.524Z,100377.00
2022-08-18T12:02:29.001Z,100374.00
2022-08-18T12:05:08.419Z,100376.00
2022-08-18T12:07:57.321Z,100371.00
2022-08-18T12:10:31.362Z,100376.00
2022-08-18T12:13:03.020Z,100378.00
2022-08-18T12:15:46.803Z,100381.00
2022-08-18T12:21:10.126Z,100370.00
2022-08-18T12:23:52.215Z,100375.00
2022-08-18T12:29:13.351Z,100370.00
2022-08-18T12:31:48.652Z,100369.00
2022-08-18T12:34:26.228Z,100362.00
2022-08-18T12:37:01.241Z,100364.00
2022-08-18T12:39:34.798Z,100364.00
2022-08-18T12:42:05.878Z,100368.00
2022-08-18T12:44:36.457Z,100367.00
2022-08-18T12:47:14.033Z,100368.00
2022-08-18T12:49:45.054Z,100352.00
2022-08-18T12:52:15.459Z,100348.00
2022-08-18T12:54:55.812Z,100363.00
2022-08-18T12:57:51.651Z,100355.00
2022-08-18T13:00:28.001Z,100358.00
2022-08-18T13:02:59.640Z,100355.00
2022-08-18T13:05:30.736Z,100348.00
2022-08-18T13:08:04.900Z,100352.00
2022-08-18T13:10:45.452Z,100357.00
2022-08-18T13:13:17.368Z,100358.00
2022-08-18T13:15:55.323Z,100357.00
2022-08-18T13:18:29.455Z,100362.00
2022-08-18T13:21:00.345Z,100353.00
2022-08-18T13:23:32.088Z,100345.00
2022-08-18T13:26:06.437Z,100351.00
2022-08-18T13:28:50.001Z,100343.00
2022-08-18T13:31:27.938Z,100339.00
2022-08-18T13:34:04.027Z,100339.00
2022-08-18T13:36:46.212Z,100337.00
2022-08-18T13:39:20.952Z,100340.00
2022-08-18T13:41:57.306Z,100337.00
2022-08-18T13:44:31.600Z,100337.00
2022-08-18T13:47:01.771Z,100338.00
2022-08-18T13:49:31.985Z,100340.00
2022-08-18T13:52:03.279Z,100334.00
2022-08-18T13:54:37.229Z,100323.00
2022-08-18T13:57:11.393Z,100320.00
2022-08-18T13:59:46.729Z,100311.00
2022-08-18T14:02:17.182Z,100314.00
2022-08-18T14:04:49.521Z,100306.00
2022-08-18T14:07:24.619Z,100296.00
2022-08-18T14:09:58.053Z,100294.00
2022-08-18T14:12:40.771Z,100288.00
2022-08-18T14:15:15.602Z,100282.00
2022-08-18T14:17:46.558Z,100276.00
2022-08-18T14:20:32.305Z,100278.00
2022-08-18T14:23:22.008Z,100275.00
2022-08-18T14:26:07.896Z,100275.00
2022-08-18T14:28:41.369Z,100281.00
2022-08-18T14:31:12.480Z,100269.00
2022-08-18T14:33:50.414Z,100282.00
2022-08-18T14:36:29.440Z,100291.00
2022-08-18T14:39:00.762Z,100299.00
2022-08-18T14:41:32.006Z,100297.00
2022-08-18T14:44:12.967Z,100295.00
2022-08-18T14:46:54.208Z,100307.00
2022-08-18T14:49:28.709Z,100309.00
2022-08-18T14:52:01.221Z,100312.00
2022-08-18T14:54:33.305Z,100333.00
2022-08-18T14:57:05.808Z,100345.00
2022-08-18T14:59:42.371Z,100347.00
2022-08-18T15:02:16.095Z,100337.00
2022-08-18T15:04:55.794Z,100337.00
2022-08-18T15:07:28.014Z,100337.00
2022-08-18T15:10:15.521Z,100348.00
2022-08-18T15:12:49.245Z,100342.00
2022-08-18T15:15:22.777Z,100348.00
2022-08-18T15:17:53.920Z,100344.00
2022-08-18T15:20:28.867Z,100333.00
2022-08-18T15:23:15.537Z,100330.00
2022-08-18T15:25:51.063Z,100335.00
2022-08-18T15:28:27.319Z,100333.00
2022-08-18T15:33:51.398Z,100351.00
2022-08-18T15:36:29.301Z,100355.00
2022-08-18T15:39:00.466Z,100371.00
2022-08-18T15:41:43.902Z,100394.00
2022-08-18T15:44:16.653Z,100398.00
2022-08-18T15:46:53.217Z,100398.00
2022-08-18T15:49:24.164Z,100418.00
2022-08-18T15:51:54.878Z,100406.00
2022-08-18T15:54:25.443Z,100438.00
2022-08-18T15:56:57.717Z,100432.00
2022-08-18T15:59:34.304Z,100416.00
2022-08-18T16:02:18.042Z,100421.00
2022-08-18T16:04:49.730Z,100440.00
2022-08-18T16:07:39.804Z,100445.00
2022-08-18T16:10:13.047Z,100440.00
2022-08-18T16:12:45.993Z,100454.00
2022-08-18T16:15:19.490Z,100451.00
2022-08-18T16:17:55.604Z,100449.00
2022-08-18T16:20:29.440Z,100439.00
2022-08-18T16:23:00.641Z,100435.00
2022-08-18T16:25:31.526Z,100440.00
2022-08-18T16:28:03.090Z,100429.00
2022-08-18T16:30:34.212Z,100441.00
2022-08-18T16:33:09.699Z,100464.00
2022-08-18T16:35:40.549Z,100455.00
2022-08-18T16:38:15.604Z,100465.00
2022-08-18T16:40:45.991Z,100460.00
2022-08-18T16:43:16.283Z,100476.00
2022-08-18T16:45:47.405Z,100485.00
2022-08-18T16:48:20.621Z,100491.00
2022-08-18T16:50:51.515Z,100481.00
2022-08-18T16:53:21.974Z,100474.00
2022-08-18T16:55:52.667Z,100461.00
2022-08-18T16:58:35.484Z,100444.00
2022-08-18T17:01:18.984Z,100459.00
2022-08-18T17:04:04.612Z,100462.00
2022-08-18T17:06:47.481Z,100466.00
2022-08-18T17:09:18.623Z,100453.00
2022-08-18T17:11:52.006Z,100453.00
2022-08-18T17:14:24.482Z,100443.00
2022-08-18T17:16:56.497Z,100445.00
2022-08-18T17:19:33.689Z,100439.00
2022-08-18T17:22:05.323Z,100437.00
2022-08-18T17:24:35.709Z,100432.00
2022-08-18T17:27:26.246Z,100421.00
2022-08-18T17:30:07.221Z,100421.00
2022-08-18T17:32:46.934Z,100413.00
2022-08-18T17:35:29.073Z,100413.00
2022-08-18T17:38:06.860Z,100406.00
2022-08-18T17:40:43.679Z,100412.00
2022-08-18T17:43:18.791Z,100411.00
2022-08-18T17:46:03.408Z,100409.00
2022-08-18T17:48:41.030Z,100405.00
2022-08-18T17:51:32.881Z,100395.00
2022-08-18T17:54:06.872Z,100397.00
2022-08-18T17:56:46.358Z,100393.00
2022-08-18T17:59:45.851Z,100377.00
2022-08-18T18:02:29.316Z,100392.00
2022-08-18T18:05:01.689Z,100390.00
2022-08-18T18:07:39.895Z,100399.00
2022-08-18T18:10:14.940Z,100404.00
2022-08-18T18:12:45.949Z,100406.00
2022-08-18T18:15:17.813Z,100400.00
2022-08-18T18:17:48.831Z,100409.00
2022-08-18T18:20:38.178Z,100412.00
2022-08-18T18:23:23.180Z,100420.00
2022-08-18T18:25:55.169Z,100413.00
2022-08-18T18:28:32.083Z,100410.00
2022-08-18T18:31:21.244Z,100399.00
2022-08-18T18:34:00.127Z,100387.00
2022-08-18T18:36:40.213Z,100396.00
2022-08-18T18:39:20.973Z,100399.00
2022-08-18T18:41:56.546Z,100387.00
2022-08-18T18:44:33.761Z,100385.00
2022-08-18T18:47:11.517Z,100389.00
2022-08-18T18:49:51.577Z,100383.00
2022-08-18T18:52:28.447Z,100388.00
2022-08-18T18:55:07.465Z,100387.00
2022-08-18T18:57:48.564Z,100378.00
2022-08-18T19:00:24.943Z,100371.00
2022-08-18T19:03:06.238Z,100372.00
2022-08-18T19:05:43.606Z,100369.00
2022-08-18T19:08:28.497Z,100384.00
2022-08-18T19:11:17.843Z,100382.00
2022-08-18T19:13:54.413Z,100385.00
2022-08-18T19:16:32.384Z,100391.00
2022-08-18T19:19:37.325Z,100395.00
2022-08-18T19:22:06.871Z,100402.00
2022-08-18T19:24:46.373Z,100394.00
2022-08-18T19:27:31.462Z,100401.00
2022-08-18T19:30:09.760Z,100390.00
2022-08-18T19:32:46.619Z,100392.00
2022-08-18T19:35:23.154Z,100397.00
2022-08-18T19:38:12.248Z,100405.00
2022-08-18T19:40:50.650Z,100413.00
2022-08-18T19:43:43.208Z,100404.00
2022-08-18T19:46:21.047Z,100407.00
2022-08-18T19:48:58.177Z,100420.00
2022-08-18T19:51:36.863Z,100419.00
2022-08-18T19:54:30.643Z,100417.00
2022-08-18T19:57:16.059Z,100416.00
2022-08-18T20:00:12.135Z,100415.00
2022-08-18T20:03:10.284Z,100420.00
2022-08-18T20:05:48.973Z,100421.00
2022-08-18T20:08:50.301Z,100419.00
2022-08-18T20:11:49.728Z,100423.00
2022-08-18T20:14:22.354Z,100411.00
2022-08-18T20:17:21.949Z,100403.00
2022-08-18T20:20:15.326Z,100395.00
2022-08-18T20:22:48.043Z,100386.00
2022-08-18T20:25:48.310Z,100380.00
2022-08-18T20:28:37.382Z,100371.00
2022-08-18T20:31:17.795Z,100366.00
2022-08-18T20:34:14.025Z,100364.00
2022-08-18T20:36:46.520Z,100364.00
2022-08-18T20:39:44.794Z,100379.00
2022-08-18T20:42:47.667Z,100385.00
2022-08-18T20:45:32.055Z,100387.00
2022-08-18T20:48:29.140Z,100401.00
2022-08-18T20:51:12.870Z,100385.00
2022-08-18T20:54:13.696Z,100396.00
2022-08-18T20:56:50.804Z,100392.00
2022-08-18T20:59:26.574Z,100403.00
2022-08-18T21:02:01.258Z,100397.00
2022-08-18T21:04:49.958Z,100395.00
2022-08-18T21:07:36.236Z,100390.00
2022-08-18T21:10:16.732Z,100397.00
2022-08-18T21:12:54.131Z,100404.00
2022-08-18T21:15:28.152Z,100396.00
2022-08-18T21:18:03.982Z,100399.00
2022-08-18T21:20:35.359Z,100394.00
2022-08-18T21:23:12.680Z,100397.00
2022-08-18T21:25:54.211Z,100385.00
2022-08-18T21:28:25.900Z,100376.00
2022-08-18T21:31:41.676Z,100378.00
2022-08-18T21:33:53.869Z,100371.00
2022-08-18T21:36:31.806Z,100368.00
2022-08-18T21:39:17.750Z,100364.00
2022-08-18T21:41:53.300Z,100353.00
2022-08-18T21:44:28.313Z,100352.00
2022-08-18T21:47:09.777Z,100360.00
2022-08-18T21:49:40.013Z,100371.00
2022-08-18T21:52:11.734Z,100364.00
2022-08-18T21:54:49.296Z,100357.00
2022-08-18T21:57:26.352Z,100349.00
2022-08-18T22:00:19.663Z,100343.00
2022-08-18T22:02:52.438Z,100343.00
2022-08-18T22:05:58.732Z,100343.00
2022-08-18T22:08:28.076Z,100344.00
2022-08-18T22:11:52.021Z,100354.00
2022-08-18T22:14:36.248Z,100356.00
2022-08-18T22:17:36.029Z,100350.00
2022-08-18T22:20:46.035Z,100345.00
2022-08-18T22:23:52.961Z,100340.00
2022-08-18T22:26:30.578Z,100347.00
2022-08-18T22:29:15.997Z,100348.00
2022-08-18T22:31:49.511Z,100350.00
2022-08-18T22:34:27.227Z,100353.00
2022-08-18T22:37:02.839Z,100349.00
2022-08-18T22:39:37.897Z,100352.00
2022-08-18T22:42:13.795Z,100344.00
2022-08-18T22:44:45.683Z,100354.00
2022-08-18T22:47:16.640Z,100348.00
2022-08-18T22:49:46.881Z,100344.00
2022-08-18T22:52:29.889Z,100341.00
2022-08-18T22:55:03.316Z,100335.00
2022-08-18T22:57:41.050Z,100335.00
2022-08-18T23:00:18.081Z,100330.00
2022-08-18T23:02:48.467Z,100333.00
2022-08-18T23:05:18.788Z,100335.00
2022-08-18T23:07:49.104Z,100332.00
2022-08-18T23:10:19.605Z,100333.00
2022-08-18T23:12:52.849Z,100331.00
2022-08-18T23:15:38.289Z,100339.00
2022-08-18T23:18:08.972Z,100338.00
2022-08-18T23:20:41.132Z,100332.00
2022-08-18T23:23:11.555Z,100339.00
2022-08-18T23:25:42.449Z,100337.00
2022-08-18T23:28:15.818Z,100339.00
2022-08-18T23:30:46.657Z,100339.00
2022-08-18T23:33:17.709Z,100332.00
2022-08-18T23:35:48.307Z,100333.00
2022-08-18T23:38:19.213Z,100339.00
2022-08-18T23:40:53.900Z,100335.00
2022-08-18T23:43:28.248Z,100334.00
2022-08-18T23:45:58.566Z,100335.00
2022-08-18T23:48:29.253Z,100339.00
2022-08-18T23:51:03.200Z,100348.00
2022-08-18T23:53:34.522Z,100359.00
2022-08-18T23:56:06.280Z,100363.00
2022-08-18T23:58:39.135Z,100352.00
